sensor_id;sensor_type;location;lat;lon;timestamp;pressure;altitude;pressure_sealevel;temperature;humidity
11172;BME280;5642;50.830;12.082;2023-07-20T00:01:35;99055.25;;;20.29;37.89
11172;BME280;5642;50.830;12.082;2023-07-20T00:04:07;99065.78;;;20.31;38.08
11172;BME280;5642;50.830;12.082;2023-07-20T00:06:43;99072.16;;;20.17;38.20
11172;BME280;5642;50.830;12.082;2023-07-20T00:09:10;99071.75;;;20.11;38.05
11172;BME280;5642;50.830;12.082;2023-07-20T00:11:37;99082.13;;;20.03;38.10
11172;BME280;5642;50.830;12.082;2023-07-20T00:14:10;99084.63;;;19.93;38.39
11172;BME280;5642;50.830;12.082;2023-07-20T00:16:38;99082.06;;;19.91;38.57
11172;BME280;5642;50.830;12.082;2023-07-20T00:19:05;99079.66;;;19.88;38.60
11172;BME280;5642;50.830;12.082;2023-07-20T00:21:32;99051.31;;;19.76;38.43
11172;BME280;5642;50.830;12.082;2023-07-20T00:23:59;99067.66;;;19.83;38.49
11172;BME280;5642;50.830;12.082;2023-07-20T00:26:25;99059.19;;;19.78;38.55
11172;BME280;5642;50.830;12.082;2023-07-20T00:28:53;99049.88;;;19.72;38.57
11172;BME280;5642;50.830;12.082;2023-07-20T00:31:22;99038.97;;;19.64;38.82
11172;BME280;5642;50.830;12.082;2023-07-20T00:33:52;99050.78;;;19.60;38.92
11172;BME280;5642;50.830;12.082;2023-07-20T00:36:19;99041.78;;;19.50;38.94
11172;BME280;5642;50.830;12.082;2023-07-20T00:38:46;99057.63;;;19.51;39.09
11172;BME280;5642;50.830;12.082;2023-07-20T00:41:16;99052.09;;;19.42;38.97
11172;BME280;5642;50.830;12.082;2023-07-20T00:43:42;99055.84;;;19.39;39.25
11172;BME280;5642;50.830;12.082;2023-07-20T00:46:09;99048.94;;;19.37;39.18
11172;BME280;5642;50.830;12.082;2023-07-20T00:48:37;99044.19;;;19.29;39.26
11172;BME280;5642;50.830;12.082;2023-07-20T00:51:05;99048.25;;;19.22;39.26
11172;BME280;5642;50.830;12.082;2023-07-20T00:53:36;99050.84;;;19.11;39.23
11172;BME280;5642;50.830;12.082;2023-07-20T00:56:04;99053.69;;;19.08;39.49
11172;BME280;5642;50.830;12.082;2023-07-20T00:58:35;99051.38;;;19.03;39.67
11172;BME280;5642;50.830;12.082;2023-07-20T01:01:05;99056.16;;;18.98;39.42
11172;BME280;5642;50.830;12.082;2023-07-20T01:03:35;99048.97;;;18.88;39.65
11172;BME280;5642;50.830;12.082;2023-07-20T01:06:41;99059.59;;;18.88;39.81
11172;BME280;5642;50.830;12.082;2023-07-20T01:09:53;99067.34;;;18.78;39.91
11172;BME280;5642;50.830;12.082;2023-07-20T01:12:41;99056.22;;;18.73;39.91
11172;BME280;5642;50.830;12.082;2023-07-20T01:15:11;99052.19;;;18.67;39.80
11172;BME280;5642;50.830;12.082;2023-07-20T01:17:42;99048.13;;;18.62;39.87
11172;BME280;5642;50.830;12.082;2023-07-20T01:20:16;99058.53;;;18.65;40.10
11172;BME280;5642;50.830;12.082;2023-07-20T01:25:57;99054.06;;;18.53;40.03
11172;BME280;5642;50.830;12.082;2023-07-20T01:29:17;99044.63;;;18.49;40.15
11172;BME280;5642;50.830;12.082;2023-07-20T01:31:52;99045.91;;;18.43;40.22
11172;BME280;5642;50.830;12.082;2023-07-20T01:34:41;99046.00;;;18.42;40.07
11172;BME280;5642;50.830;12.082;2023-07-20T01:37:27;99044.53;;;18.37;40.06
11172;BME280;5642;50.830;12.082;2023-07-20T01:40:16;99036.34;;;18.28;40.08
11172;BME280;5642;50.830;12.082;2023-07-20T01:42:47;99038.91;;;18.29;40.27
11172;BME280;5642;50.830;12.082;2023-07-20T01:45:16;99051.31;;;18.29;40.21
11172;BME280;5642;50.830;12.082;2023-07-20T01:47:48;99048.22;;;18.22;40.24
11172;BME280;5642;50.830;12.082;2023-07-20T01:50:15;99044.19;;;18.17;40.26
11172;BME280;5642;50.830;12.082;2023-07-20T01:52:42;99054.81;;;18.17;40.20
11172;BME280;5642;50.830;12.082;2023-07-20T01:55:17;99028.91;;;17.95;40.57
11172;BME280;5642;50.830;12.082;2023-07-20T01:57:43;99051.38;;;18.02;40.63
11172;BME280;5642;50.830;12.082;2023-07-20T02:00:09;99043.53;;;18.00;40.77
11172;BME280;5642;50.830;12.082;2023-07-20T02:02:37;99047.97;;;18.00;40.66
11172;BME280;5642;50.830;12.082;2023-07-20T02:05:03;99028.88;;;17.82;40.70
11172;BME280;5642;50.830;12.082;2023-07-20T02:07:30;99057.19;;;17.94;40.87
11172;BME280;5642;50.830;12.082;2023-07-20T02:09:56;99063.53;;;17.92;40.71
11172;BME280;5642;50.830;12.082;2023-07-20T02:12:23;99054.31;;;17.85;40.60
11172;BME280;5642;50.830;12.082;2023-07-20T02:14:49;99061.41;;;17.84;40.77
11172;BME280;5642;50.830;12.082;2023-07-20T02:17:16;99059.06;;;17.80;40.99
11172;BME280;5642;50.830;12.082;2023-07-20T02:19:44;99056.84;;;17.74;41.13
11172;BME280;5642;50.830;12.082;2023-07-20T02:22:10;99060.34;;;17.74;41.05
11172;BME280;5642;50.830;12.082;2023-07-20T02:24:36;99038.25;;;17.61;41.05
11172;BME280;5642;50.830;12.082;2023-07-20T02:27:02;99056.16;;;17.70;41.25
11172;BME280;5642;50.830;12.082;2023-07-20T02:29:28;99068.28;;;17.74;41.28
11172;BME280;5642;50.830;12.082;2023-07-20T02:31:54;99070.84;;;17.76;41.05
11172;BME280;5642;50.830;12.082;2023-07-20T02:34:19;99068.91;;;17.78;41.23
11172;BME280;5642;50.830;12.082;2023-07-20T02:36:45;99059.75;;;17.69;41.11
11172;BME280;5642;50.830;12.082;2023-07-20T02:39:11;99060.97;;;17.78;41.06
11172;BME280;5642;50.830;12.082;2023-07-20T02:41:38;99066.06;;;17.81;41.25
11172;BME280;5642;50.830;12.082;2023-07-20T02:44:04;99072.22;;;17.81;41.38
11172;BME280;5642;50.830;12.082;2023-07-20T02:46:31;99069.66;;;17.80;41.32
11172;BME280;5642;50.830;12.082;2023-07-20T02:48:57;99072.00;;;17.84;41.17
11172;BME280;5642;50.830;12.082;2023-07-20T02:51:24;99077.31;;;17.84;41.34
11172;BME280;5642;50.830;12.082;2023-07-20T02:53:50;99067.88;;;17.80;41.38
11172;BME280;5642;50.830;12.082;2023-07-20T02:56:17;99077.19;;;17.86;41.21
11172;BME280;5642;50.830;12.082;2023-07-20T02:58:45;99079.66;;;17.89;41.54
11172;BME280;5642;50.830;12.082;2023-07-20T03:01:13;99073.41;;;17.90;41.44
11172;BME280;5642;50.830;12.082;2023-07-20T03:03:42;99079.44;;;17.92;41.41
11172;BME280;5642;50.830;12.082;2023-07-20T03:06:14;99082.84;;;17.94;41.36
11172;BME280;5642;50.830;12.082;2023-07-20T03:08:41;99081.69;;;17.98;41.39
11172;BME280;5642;50.830;12.082;2023-07-20T03:11:16;99082.34;;;18.02;41.50
11172;BME280;5642;50.830;12.082;2023-07-20T03:13:43;99088.16;;;18.07;41.50
11172;BME280;5642;50.830;12.082;2023-07-20T03:16:10;99073.13;;;18.07;41.48
11172;BME280;5642;50.830;12.082;2023-07-20T03:18:39;99087.38;;;18.19;41.40
11172;BME280;5642;50.830;12.082;2023-07-20T03:21:06;99084.06;;;18.15;41.14
11172;BME280;5642;50.830;12.082;2023-07-20T03:23:34;99092.53;;;18.20;41.44
11172;BME280;5642;50.830;12.082;2023-07-20T03:26:00;99093.81;;;18.27;41.37
11172;BME280;5642;50.830;12.082;2023-07-20T03:28:28;99106.13;;;18.41;41.43
11172;BME280;5642;50.830;12.082;2023-07-20T03:30:57;99090.03;;;18.44;41.45
11172;BME280;5642;50.830;12.082;2023-07-20T03:33:26;99087.81;;;18.51;41.28
11172;BME280;5642;50.830;12.082;2023-07-20T03:35:53;99091.34;;;18.64;41.22
11172;BME280;5642;50.830;12.082;2023-07-20T03:38:20;99095.16;;;18.72;41.32
11172;BME280;5642;50.830;12.082;2023-07-20T03:41:04;99081.56;;;18.77;41.28
11172;BME280;5642;50.830;12.082;2023-07-20T03:43:31;99087.06;;;18.87;41.27
11172;BME280;5642;50.830;12.082;2023-07-20T03:45:57;99078.16;;;18.88;41.21
11172;BME280;5642;50.830;12.082;2023-07-20T03:48:25;99091.84;;;18.94;41.16
11172;BME280;5642;50.830;12.082;2023-07-20T03:50:53;99080.72;;;18.89;41.26
11172;BME280;5642;50.830;12.082;2023-07-20T03:53:19;99100.31;;;18.99;41.29
11172;BME280;5642;50.830;12.082;2023-07-20T03:55:50;99088.00;;;18.98;41.28
11172;BME280;5642;50.830;12.082;2023-07-20T03:58:18;99078.78;;;18.91;41.46
11172;BME280;5642;50.830;12.082;2023-07-20T04:00:46;99091.19;;;19.03;41.28
11172;BME280;5642;50.830;12.082;2023-07-20T04:03:13;99109.00;;;19.14;41.23
11172;BME280;5642;50.830;12.082;2023-07-20T04:05:48;99107.00;;;19.17;41.26
11172;BME280;5642;50.830;12.082;2023-07-20T04:08:14;99111.97;;;19.22;41.46
11172;BME280;5642;50.830;12.082;2023-07-20T04:10:43;99107.06;;;19.29;41.37
11172;BME280;5642;50.830;12.082;2023-07-20T04:13:09;99106.00;;;19.31;41.57
11172;BME280;5642;50.830;12.082;2023-07-20T04:15:35;99098.88;;;19.32;41.29
11172;BME280;5642;50.830;12.082;2023-07-20T04:18:02;99103.75;;;19.38;41.63
11172;BME280;5642;50.830;12.082;2023-07-20T04:20:29;99108.72;;;19.42;41.53
11172;BME280;5642;50.830;12.082;2023-07-20T04:22:55;99098.66;;;19.35;41.56
11172;BME280;5642;50.830;12.082;2023-07-20T04:25:21;99095.88;;;19.36;41.54
11172;BME280;5642;50.830;12.082;2023-07-20T04:27:47;99101.59;;;19.43;41.50
11172;BME280;5642;50.830;12.082;2023-07-20T04:30:16;99085.06;;;19.39;41.53
11172;BME280;5642;50.830;12.082;2023-07-20T04:32:43;99096.97;;;19.46;41.74
11172;BME280;5642;50.830;12.082;2023-07-20T04:35:21;99099.78;;;19.56;41.70
11172;BME280;5642;50.830;12.082;2023-07-20T04:38:03;99101.28;;;19.60;41.67
11172;BME280;5642;50.830;12.082;2023-07-20T04:40:30;99109.69;;;19.78;41.68
11172;BME280;5642;50.830;12.082;2023-07-20T04:42:56;99005.81;;;19.33;41.59
11172;BME280;5642;50.830;12.082;2023-07-20T04:45:25;99110.91;;;20.09;41.52
11172;BME280;5642;50.830;12.082;2023-07-20T04:47:51;99106.25;;;20.23;41.42
11172;BME280;5642;50.830;12.082;2023-07-20T04:50:18;99085.25;;;20.31;41.17
11172;BME280;5642;50.830;12.082;2023-07-20T04:52:46;99101.16;;;20.55;41.10
11172;BME280;5642;50.830;12.082;2023-07-20T04:55:14;99109.06;;;20.79;40.99
11172;BME280;5642;50.830;12.082;2023-07-20T04:57:40;99098.75;;;20.86;41.11
11172;BME280;5642;50.830;12.082;2023-07-20T05:00:07;99113.16;;;21.05;40.79
11172;BME280;5642;50.830;12.082;2023-07-20T05:02:41;99097.31;;;21.04;40.85
11172;BME280;5642;50.830;12.082;2023-07-20T05:05:07;99101.34;;;21.21;40.67
11172;BME280;5642;50.830;12.082;2023-07-20T05:07:33;99108.69;;;21.51;40.67
11172;BME280;5642;50.830;12.082;2023-07-20T05:10:01;99114.59;;;21.65;40.66
11172;BME280;5642;50.830;12.082;2023-07-20T05:12:27;99064.63;;;21.35;40.59
11172;BME280;5642;50.830;12.082;2023-07-20T05:15:04;99121.22;;;21.71;40.56
11172;BME280;5642;50.830;12.082;2023-07-20T05:17:30;99120.00;;;21.75;40.87
11172;BME280;5642;50.830;12.082;2023-07-20T05:19:58;99121.09;;;21.72;40.69
11172;BME280;5642;50.830;12.082;2023-07-20T05:22:26;99110.56;;;21.71;40.75
11172;BME280;5642;50.830;12.082;2023-07-20T05:24:52;99118.78;;;21.79;40.90
11172;BME280;5642;50.830;12.082;2023-07-20T05:27:18;99116.34;;;21.76;40.99
11172;BME280;5642;50.830;12.082;2023-07-20T05:29:45;99106.53;;;21.76;40.89
11172;BME280;5642;50.830;12.082;2023-07-20T05:32:14;99131.59;;;21.96;41.00
11172;BME280;5642;50.830;12.082;2023-07-20T05:34:40;99132.94;;;22.02;40.98
11172;BME280;5642;50.830;12.082;2023-07-20T05:37:12;99124.75;;;22.14;41.15
11172;BME280;5642;50.830;12.082;2023-07-20T05:39:38;99132.81;;;22.24;41.07
11172;BME280;5642;50.830;12.082;2023-07-20T05:42:04;99131.47;;;22.30;40.75
11172;BME280;5642;50.830;12.082;2023-07-20T05:44:33;99132.78;;;22.35;41.00
11172;BME280;5642;50.830;12.082;2023-07-20T05:47:01;99126.47;;;22.36;40.92
11172;BME280;5642;50.830;12.082;2023-07-20T05:49:29;99120.28;;;22.36;41.05
11172;BME280;5642;50.830;12.082;2023-07-20T05:51:55;99133.94;;;22.42;40.97
11172;BME280;5642;50.830;12.082;2023-07-20T05:54:27;99125.81;;;22.44;40.93
11172;BME280;5642;50.830;12.082;2023-07-20T05:56:57;99142.41;;;22.47;41.12
11172;BME280;5642;50.830;12.082;2023-07-20T05:59:24;99130.63;;;22.50;41.02
11172;BME280;5642;50.830;12.082;2023-07-20T06:01:50;99143.84;;;22.51;41.17
11172;BME280;5642;50.830;12.082;2023-07-20T06:04:17;99132.16;;;22.52;41.03
11172;BME280;5642;50.830;12.082;2023-07-20T06:06:44;99125.66;;;22.45;41.19
11172;BME280;5642;50.830;12.082;2023-07-20T06:09:12;99138.03;;;22.67;41.17
11172;BME280;5642;50.830;12.082;2023-07-20T06:11:38;99135.44;;;22.97;40.81
11172;BME280;5642;50.830;12.082;2023-07-20T06:14:05;99127.53;;;23.26;40.92
11172;BME280;5642;50.830;12.082;2023-07-20T06:16:31;99118.44;;;23.38;40.47
11172;BME280;5642;50.830;12.082;2023-07-20T06:18:57;99133.84;;;23.56;40.78
11172;BME280;5642;50.830;12.082;2023-07-20T06:21:24;99131.75;;;23.59;40.51
11172;BME280;5642;50.830;12.082;2023-07-20T06:23:50;99134.88;;;23.64;40.41
11172;BME280;5642;50.830;12.082;2023-07-20T06:26:16;99135.28;;;23.69;40.43
11172;BME280;5642;50.830;12.082;2023-07-20T06:28:43;99120.34;;;23.57;40.38
11172;BME280;5642;50.830;12.082;2023-07-20T06:31:10;99126.25;;;23.61;40.66
11172;BME280;5642;50.830;12.082;2023-07-20T06:33:38;99116.25;;;23.53;40.90
11172;BME280;5642;50.830;12.082;2023-07-20T06:36:06;99125.00;;;23.55;40.56
11172;BME280;5642;50.830;12.082;2023-07-20T06:38:32;99134.31;;;23.70;40.49
11172;BME280;5642;50.830;12.082;2023-07-20T06:40:59;99122.78;;;23.89;40.34
11172;BME280;5642;50.830;12.082;2023-07-20T06:43:25;99117.16;;;24.02;40.17
11172;BME280;5642;50.830;12.082;2023-07-20T06:45:52;99125.38;;;24.29;40.28
11172;BME280;5642;50.830;12.082;2023-07-20T06:48:20;99123.13;;;24.44;39.98
11172;BME280;5642;50.830;12.082;2023-07-20T06:50:46;99131.53;;;24.58;40.27
11172;BME280;5642;50.830;12.082;2023-07-20T06:53:13;99124.06;;;24.72;40.11
11172;BME280;5642;50.830;12.082;2023-07-20T06:55:43;99118.78;;;24.89;39.90
11172;BME280;5642;50.830;12.082;2023-07-20T06:58:11;99112.69;;;25.07;39.99
11172;BME280;5642;50.830;12.082;2023-07-20T07:00:37;99116.50;;;25.31;39.65
11172;BME280;5642;50.830;12.082;2023-07-20T07:03:04;99114.88;;;25.48;39.85
11172;BME280;5642;50.830;12.082;2023-07-20T07:05:30;99066.66;;;25.39;39.50
11172;BME280;5642;50.830;12.082;2023-07-20T07:07:58;99127.41;;;26.02;39.10
11172;BME280;5642;50.830;12.082;2023-07-20T07:10:24;99125.94;;;26.43;38.75
11172;BME280;5642;50.830;12.082;2023-07-20T07:12:50;99112.50;;;27.13;38.32
11172;BME280;5642;50.830;12.082;2023-07-20T07:15:16;99111.75;;;27.79;38.17
11172;BME280;5642;50.830;12.082;2023-07-20T07:17:42;99106.63;;;28.18;37.70
11172;BME280;5642;50.830;12.082;2023-07-20T07:20:09;99094.19;;;28.33;37.92
11172;BME280;5642;50.830;12.082;2023-07-20T07:22:35;99099.91;;;28.46;38.03
11172;BME280;5642;50.830;12.082;2023-07-20T07:25:01;99092.44;;;28.72;37.45
11172;BME280;5642;50.830;12.082;2023-07-20T07:27:29;99106.28;;;29.41;37.30
11172;BME280;5642;50.830;12.082;2023-07-20T07:29:57;99090.81;;;30.19;35.84
11172;BME280;5642;50.830;12.082;2023-07-20T07:32:24;99109.69;;;31.17;35.79
11172;BME280;5642;50.830;12.082;2023-07-20T07:34:50;99104.69;;;31.65;35.23
11172;BME280;5642;50.830;12.082;2023-07-20T07:37:16;99106.22;;;32.24;35.00
11172;BME280;5642;50.830;12.082;2023-07-20T07:39:45;99099.31;;;32.71;34.66
11172;BME280;5642;50.830;12.082;2023-07-20T07:42:14;99103.13;;;33.39;34.05
11172;BME280;5642;50.830;12.082;2023-07-20T07:44:41;99072.91;;;33.68;33.88
11172;BME280;5642;50.830;12.082;2023-07-20T07:47:07;99066.78;;;34.20;33.67
11172;BME280;5642;50.830;12.082;2023-07-20T07:49:35;99105.31;;;34.64;33.01
11172;BME280;5642;50.830;12.082;2023-07-20T07:52:02;99114.94;;;34.66;33.17
11172;BME280;5642;50.830;12.082;2023-07-20T07:54:28;99101.09;;;34.61;33.41
11172;BME280;5642;50.830;12.082;2023-07-20T07:56:55;99107.00;;;34.51;33.41
11172;BME280;5642;50.830;12.082;2023-07-20T07:59:23;99117.66;;;34.66;33.30
11172;BME280;5642;50.830;12.082;2023-07-20T08:01:49;99074.75;;;34.55;33.27
11172;BME280;5642;50.830;12.082;2023-07-20T08:04:15;99099.25;;;34.48;33.28
11172;BME280;5642;50.830;12.082;2023-07-20T08:06:43;99105.03;;;34.06;34.08
11172;BME280;5642;50.830;12.082;2023-07-20T08:09:09;99119.72;;;33.70;34.33
11172;BME280;5642;50.830;12.082;2023-07-20T08:11:36;99081.69;;;33.64;33.99
11172;BME280;5642;50.830;12.082;2023-07-20T08:14:02;99049.63;;;34.07;33.15
11172;BME280;5642;50.830;12.082;2023-07-20T08:16:30;99092.75;;;34.30;33.42
11172;BME280;5642;50.830;12.082;2023-07-20T08:18:56;99111.09;;;34.08;33.41
11172;BME280;5642;50.830;12.082;2023-07-20T08:21:23;99103.19;;;33.59;33.52
11172;BME280;5642;50.830;12.082;2023-07-20T08:23:49;99088.59;;;32.91;34.63
11172;BME280;5642;50.830;12.082;2023-07-20T08:26:15;99102.19;;;32.42;34.25
11172;BME280;5642;50.830;12.082;2023-07-20T08:28:44;99107.31;;;31.94;34.65
11172;BME280;5642;50.830;12.082;2023-07-20T08:31:11;99099.75;;;31.54;34.57
11172;BME280;5642;50.830;12.082;2023-07-20T08:33:38;99096.38;;;31.51;34.74
11172;BME280;5642;50.830;12.082;2023-07-20T08:36:04;99095.69;;;31.79;34.21
11172;BME280;5642;50.830;12.082;2023-07-20T08:38:31;99095.03;;;31.77;33.98
11172;BME280;5642;50.830;12.082;2023-07-20T08:41:01;99102.72;;;31.73;33.86
11172;BME280;5642;50.830;12.082;2023-07-20T08:43:30;99101.81;;;31.51;33.94
11172;BME280;5642;50.830;12.082;2023-07-20T08:45:58;99109.28;;;31.64;33.86
11172;BME280;5642;50.830;12.082;2023-07-20T08:48:26;99109.22;;;32.36;33.47
11172;BME280;5642;50.830;12.082;2023-07-20T08:50:56;99105.00;;;32.55;32.72
11172;BME280;5642;50.830;12.082;2023-07-20T08:53:23;99107.44;;;32.22;33.15
11172;BME280;5642;50.830;12.082;2023-07-20T08:55:51;99104.41;;;31.74;33.07
11172;BME280;5642;50.830;12.082;2023-07-20T08:58:20;99101.09;;;31.13;33.35
11172;BME280;5642;50.830;12.082;2023-07-20T09:00:47;99089.22;;;30.48;33.91
11172;BME280;5642;50.830;12.082;2023-07-20T09:03:18;99084.19;;;29.99;34.18
11172;BME280;5642;50.830;12.082;2023-07-20T09:05:46;99113.41;;;30.41;33.96
11172;BME280;5642;50.830;12.082;2023-07-20T09:08:12;99075.34;;;31.18;33.42
11172;BME280;5642;50.830;12.082;2023-07-20T09:10:40;99093.47;;;32.46;32.81
11172;BME280;5642;50.830;12.082;2023-07-20T09:13:06;99107.47;;;33.40;32.49
11172;BME280;5642;50.830;12.082;2023-07-20T09:15:32;99102.09;;;34.01;31.89
11172;BME280;5642;50.830;12.082;2023-07-20T09:18:01;99090.00;;;34.10;31.86
11172;BME280;5642;50.830;12.082;2023-07-20T09:20:31;99103.34;;;34.05;31.41
11172;BME280;5642;50.830;12.082;2023-07-20T09:22:59;99063.44;;;33.45;31.63
11172;BME280;5642;50.830;12.082;2023-07-20T09:25:30;99107.63;;;33.25;32.17
11172;BME280;5642;50.830;12.082;2023-07-20T09:28:02;99092.47;;;32.75;32.29
11172;BME280;5642;50.830;12.082;2023-07-20T09:30:30;99104.66;;;32.15;33.03
11172;BME280;5642;50.830;12.082;2023-07-20T09:32:56;99101.63;;;31.53;33.08
11172;BME280;5642;50.830;12.082;2023-07-20T09:35:23;99117.00;;;30.94;33.47
11172;BME280;5642;50.830;12.082;2023-07-20T09:38:01;99117.34;;;30.39;33.50
11172;BME280;5642;50.830;12.082;2023-07-20T09:40:30;99097.75;;;29.91;33.92
11172;BME280;5642;50.830;12.082;2023-07-20T09:43:15;99093.53;;;29.57;34.11
11172;BME280;5642;50.830;12.082;2023-07-20T09:45:49;99078.06;;;29.51;34.36
11172;BME280;5642;50.830;12.082;2023-07-20T09:48:16;99078.81;;;29.68;33.97
11172;BME280;5642;50.830;12.082;2023-07-20T09:50:49;99109.47;;;30.06;33.75
11172;BME280;5642;50.830;12.082;2023-07-20T09:53:17;99107.03;;;30.19;33.85
11172;BME280;5642;50.830;12.082;2023-07-20T09:55:45;99104.63;;;30.24;33.48
11172;BME280;5642;50.830;12.082;2023-07-20T09:58:16;99111.88;;;30.24;33.52
11172;BME280;5642;50.830;12.082;2023-07-20T10:00:43;99124.13;;;30.12;33.36
11172;BME280;5642;50.830;12.082;2023-07-20T10:03:18;99106.88;;;29.90;33.36
11172;BME280;5642;50.830;12.082;2023-07-20T10:05:48;99125.50;;;29.77;33.41
11172;BME280;5642;50.830;12.082;2023-07-20T10:08:19;99117.66;;;29.59;33.66
11172;BME280;5642;50.830;12.082;2023-07-20T10:10:47;99123.63;;;29.46;33.55
11172;BME280;5642;50.830;12.082;2023-07-20T10:13:17;99119.28;;;29.29;33.55
11172;BME280;5642;50.830;12.082;2023-07-20T10:15:47;99132.00;;;29.12;34.19
11172;BME280;5642;50.830;12.082;2023-07-20T10:21:02;99119.72;;;28.94;33.70
11172;BME280;5642;50.830;12.082;2023-07-20T10:23:30;99121.25;;;28.96;33.58
11172;BME280;5642;50.830;12.082;2023-07-20T10:25:58;99121.38;;;29.11;33.69
11172;BME280;5642;50.830;12.082;2023-07-20T10:28:24;99110.63;;;29.81;33.78
11172;BME280;5642;50.830;12.082;2023-07-20T10:30:51;99092.03;;;31.21;33.54
11172;BME280;5642;50.830;12.082;2023-07-20T10:33:19;99091.94;;;32.65;33.33
11172;BME280;5642;50.830;12.082;2023-07-20T10:36:02;99097.72;;;34.19;32.81
11172;BME280;5642;50.830;12.082;2023-07-20T10:38:51;99089.53;;;35.83;32.51
11172;BME280;5642;50.830;12.082;2023-07-20T10:41:21;99094.25;;;37.24;32.26
11172;BME280;5642;50.830;12.082;2023-07-20T10:43:50;99090.81;;;38.55;31.89
11172;BME280;5642;50.830;12.082;2023-07-20T10:46:42;99078.31;;;39.98;30.71
11172;BME280;5642;50.830;12.082;2023-07-20T10:49:10;99072.19;;;40.69;30.56
11172;BME280;5642;50.830;12.082;2023-07-20T10:51:46;99052.97;;;40.69;29.36
11172;BME280;5642;50.830;12.082;2023-07-20T10:56:47;99084.47;;;39.76;29.31
11172;BME280;5642;50.830;12.082;2023-07-20T10:59:36;99107.34;;;38.60;29.50
11172;BME280;5642;50.830;12.082;2023-07-20T11:02:06;99130.25;;;36.97;30.52
11172;BME280;5642;50.830;12.082;2023-07-20T11:04:41;99146.69;;;35.45;31.23
11172;BME280;5642;50.830;12.082;2023-07-20T11:07:07;99140.13;;;34.01;32.33
11172;BME280;5642;50.830;12.082;2023-07-20T11:09:38;99147.34;;;32.77;33.15
11172;BME280;5642;50.830;12.082;2023-07-20T11:12:15;99158.38;;;31.76;33.39
11172;BME280;5642;50.830;12.082;2023-07-20T11:14:54;99153.34;;;31.29;33.84
11172;BME280;5642;50.830;12.082;2023-07-20T11:17:32;99151.75;;;31.20;33.44
11172;BME280;5642;50.830;12.082;2023-07-20T11:20:01;99155.28;;;31.20;33.10
11172;BME280;5642;50.830;12.082;2023-07-20T11:22:30;99159.50;;;31.08;33.12
11172;BME280;5642;50.830;12.082;2023-07-20T11:24:58;99161.03;;;30.88;32.82
11172;BME280;5642;50.830;12.082;2023-07-20T11:27:24;99166.75;;;30.70;32.67
11172;BME280;5642;50.830;12.082;2023-07-20T11:29:50;99160.66;;;30.53;32.82
11172;BME280;5642;50.830;12.082;2023-07-20T11:32:23;99164.97;;;30.40;32.93
11172;BME280;5642;50.830;12.082;2023-07-20T11:34:50;99159.84;;;30.22;32.53
11172;BME280;5642;50.830;12.082;2023-07-20T11:37:17;99161.47;;;30.08;32.46
11172;BME280;5642;50.830;12.082;2023-07-20T11:39:46;99154.97;;;29.94;32.34
11172;BME280;5642;50.830;12.082;2023-07-20T11:42:15;99146.41;;;29.83;32.53
11172;BME280;5642;50.830;12.082;2023-07-20T11:44:45;99148.47;;;29.73;32.66
11172;BME280;5642;50.830;12.082;2023-07-20T11:47:13;99139.22;;;29.67;32.13
11172;BME280;5642;50.830;12.082;2023-07-20T11:49:41;99155.03;;;29.70;32.20
11172;BME280;5642;50.830;12.082;2023-07-20T11:52:14;99139.75;;;29.63;32.64
11172;BME280;5642;50.830;12.082;2023-07-20T11:54:42;99152.69;;;29.75;32.10
11172;BME280;5642;50.830;12.082;2023-07-20T11:57:22;99146.19;;;29.84;31.95
11172;BME280;5642;50.830;12.082;2023-07-20T12:00:00;99152.22;;;30.03;31.92
11172;BME280;5642;50.830;12.082;2023-07-20T12:02:34;99144.84;;;29.96;31.77
11172;BME280;5642;50.830;12.082;2023-07-20T12:05:02;99147.59;;;29.80;31.97
11172;BME280;5642;50.830;12.082;2023-07-20T12:07:32;99118.28;;;29.38;32.06
11172;BME280;5642;50.830;12.082;2023-07-20T12:10:08;99152.66;;;29.28;32.06
11172;BME280;5642;50.830;12.082;2023-07-20T12:12:38;99152.22;;;29.00;32.32
11172;BME280;5642;50.830;12.082;2023-07-20T12:15:25;99166.06;;;28.73;32.37
11172;BME280;5642;50.830;12.082;2023-07-20T12:17:53;99153.94;;;28.53;32.70
11172;BME280;5642;50.830;12.082;2023-07-20T12:20:31;99166.56;;;28.44;32.43
11172;BME280;5642;50.830;12.082;2023-07-20T12:23:05;99167.78;;;28.41;32.51
11172;BME280;5642;50.830;12.082;2023-07-20T12:25:37;99166.09;;;28.49;32.41
11172;BME280;5642;50.830;12.082;2023-07-20T12:28:08;99168.59;;;28.66;32.40
11172;BME280;5642;50.830;12.082;2023-07-20T12:30:37;99173.66;;;28.86;31.95
11172;BME280;5642;50.830;12.082;2023-07-20T12:33:06;99169.09;;;28.94;31.85
11172;BME280;5642;50.830;12.082;2023-07-20T12:35:34;99173.44;;;29.19;31.89
11172;BME280;5642;50.830;12.082;2023-07-20T12:38:00;99170.91;;;29.34;31.61
11172;BME280;5642;50.830;12.082;2023-07-20T12:40:27;99178.28;;;29.48;31.60
11172;BME280;5642;50.830;12.082;2023-07-20T12:42:53;99163.38;;;29.61;31.50
11172;BME280;5642;50.830;12.082;2023-07-20T12:45:19;99155.25;;;29.69;31.62
11172;BME280;5642;50.830;12.082;2023-07-20T12:47:45;99155.13;;;29.62;31.85
11172;BME280;5642;50.830;12.082;2023-07-20T12:50:11;99159.66;;;29.62;31.77
11172;BME280;5642;50.830;12.082;2023-07-20T12:52:40;99144.53;;;29.52;32.08
11172;BME280;5642;50.830;12.082;2023-07-20T12:55:07;99163.88;;;29.56;32.07
11172;BME280;5642;50.830;12.082;2023-07-20T12:57:35;99155.38;;;29.36;31.61
11172;BME280;5642;50.830;12.082;2023-07-20T13:00:04;99156.56;;;29.26;31.95
11172;BME280;5642;50.830;12.082;2023-07-20T13:02:33;99160.94;;;29.27;32.16
11172;BME280;5642;50.830;12.082;2023-07-20T13:04:59;99153.50;;;29.29;32.07
11172;BME280;5642;50.830;12.082;2023-07-20T13:07:32;99164.63;;;29.34;31.99
11172;BME280;5642;50.830;12.082;2023-07-20T13:10:00;99169.03;;;29.27;32.11
11172;BME280;5642;50.830;12.082;2023-07-20T13:12:31;99174.78;;;29.24;31.98
11172;BME280;5642;50.830;12.082;2023-07-20T13:14:57;99168.56;;;29.15;31.94
11172;BME280;5642;50.830;12.082;2023-07-20T13:17:27;99172.63;;;29.03;31.98
11172;BME280;5642;50.830;12.082;2023-07-20T13:19:54;99168.63;;;28.91;31.86